Arapahoe, CO

5:44 PM MDT on July 25, 2014 (GMT -0600)
KWS (KCOCHEYE2) Elev 4252 ft | 38.82 °N, 102.33 °W | Change Station

Current weather conditions updated 1 minute ago

Clear
Clear
93.5 °F
Feels Like 92 °F
N
9.0
Wind Variable Wind from ENE
Gusts 19.0 mph

Tomorrow is forecast to be nearly the same temperature as today.

Today
High -- | Low -- °F
--% Chance of Precip.
Yesterday
High -- | Low -- °F
Precip. -- in
5:43 AM 8:06 PM
Waning Crescent, 1% visible
Pressure 29.77 in
Visibility 10.0 miles
Clouds Clear
Heat Index 92 °F
Dew Point 56 °F
Humidity 28%
Rainfall 0.00 in
Snow Depth Not available.
UV 4 out of 12
Pollen 7.10 out of 12
Air Quality Not available.
Flu Activity Not available.
METAR KITR 252253Z AUTO 10010KT 10SM CLR 34/14 A2997 RMK AO2 SLP081 T03440139

More Conditions Fewer Conditions

Pressure 29.77 in
Visibility 10.0 miles
Clouds Clear
Heat Index 92 °F
Dew Point 56 °F
Humidity 28%
Rainfall 0.00 in
Snow Depth Not available.
UV 4 out of 12
Pollen 7.10 out of 12
Air Quality Not available.
Flu Activity Not available.
METAR KITR 252253Z AUTO 10010KT 10SM CLR 34/14 A2997 RMK AO2 SLP081 T03440139

More Conditions Fewer Conditions

10-Day Weather Forecast

Almanac

Astronomy

Jul. 25, 2014 Rise Set
Actual Time 5:43 AM MDT 8:06 PM MDT
Civil Twilight 5:13 AM MDT 8:36 PM MDT
Nautical Twilight 4:36 AM MDT 9:14 PM MDT
Astronomical Twilight 3:54 AM MDT 9:55 PM MDT
Moon 4:44 AM MDT 7:05 PM MDT
Length of Visible Light 15h 23m
Length of Day
14h 22m
Tomorrow will be 1m 43s shorter.
Waning Crescent, 1% of the Moon is Illuminated
Today
Waning Crescent
Jul 26
New
Aug 3
First Quarter
Aug 10
Full
Aug 17
Last Quarter

Today's Extremes

State Highs State Lows

Community

WunderPhotos

Upload Photos

1,737,450 photos uploaded!

Nearby

Snow Depth

Station Depth Elevation
Ute Creek 0 in 10650 ft
Niwot 0 in 9910 ft
Trinchera 1 in 10860 ft
Jackwhacker Gulch 0 in 10960 ft
Berthoud Summit 0 in 11300 ft

Earthquake Activity

City Distance Mag. Time & Date
No recent earthquake activity has been reported nearby.
Minimum magnitude displayed is 2.5.

Coastal Water Temperatures

Place Temperature
No Stations Reporting

Nearby Weather Stations

Station Location Temp. Heat Index Dew Point Humidity Wind Precip. Elev Updated Type
KWS, Cheyenne Wells, CO 93.5 °F 92 °F 56 °F 28% ENE  at  9.0 mph 0.00 in / hr 4252 ft 5:43 PM MDT Normal
DW8525, Cheyenne Wells, CO 94.0 °F 93 °F 58 °F 30% NE  at  9.6 mph 0.00 in / hr 4295 ft 5:44 PM MDT Rapid Fire
MesoWest FRSTVW , Cheyenne Wells, CO 94 °F 90 °F - - North  at  - 0.00 in / hr 4457 ft 4:35 PM MDT MADIS
4M Feeders, Stratton, CO 91.3 °F 90 °F 56 °F 31% East  at  0.0 mph 0.00 in / hr 4531 ft 5:44 PM MDT Normal

Show More Stations Show Fewer Stations